Huvudsida
METAR-TAF:

METAR-TAF

Flygplatser :

Sharjah internationella flygplats

Sharjah, Förenade Arabemiraten

latitud: 25-20N, longitud: 055-31E, höjd: 35 m

Aktuellt väderrapport

Denna rapport gjordes för 28 minuter sedan, klockan 19:00 UTC
Vind 3 kt från ost/sydost
Temperatur 20°C
Fuktighet 43%
Tryck 1015 hPa
Sikt 10 km eller mer
Inga moln under 1 500 m eller inga cumulonimbus

METAR: OMSJ 111900Z 12003KT CAVOK 20/07 Q1015 NOSIG

Tid: 23:28 (19:28 UTC)

Väderprognos

Denna rapport gjordes för 2 timmar och 34 minuter sedan, klockan 16:54 UTC
Prognos gäller från 11 kl. 18 UTC till 13 kl. 00 UTC
Vind 7 kt från ost/sydost
Sikt 10 km eller mer
Inga moln under 1 500 m eller inga cumulonimbus
Blir
från 12 kl. 10 UTC till 12 kl. 12 UTC
Vind 10 kt från nord
Blir
från 12 kl. 15 UTC till 12 kl. 17 UTC
Vind 5 kt från ost

TAF: OMSJ 111654Z 1118/1300 12007KT CAVOK BECMG 1210/1212 01010KT BECMG 1215/1217 10005KT

Aktuella väderrapporter och prognoser från 4000 flygplatser (METAR- och TAF-rapporter).

De tillgängliga stationerna syns som gula och röda prickar på kartan.

För musen över prickarna för att se namnen på stationerna.

Klicka sedan för att få väderrapporter och prognoser.

För att ändra kartan: Klicka på de gröna knapparna med ett svart kors på för att zooma in; den gröna knappen med ett streck på för att zooma ut; eller på de gröna pilarna för angränsande kartor.


METAR-TAF: